createdAt,value
2018-03-11T00:02:21.106Z,68.73
2018-03-11T00:04:48.709Z,68.59
2018-03-11T00:07:16.597Z,68.63
2018-03-11T00:09:44.148Z,68.37
2018-03-11T00:12:11.772Z,68.50
2018-03-11T00:14:39.397Z,68.43
2018-03-11T00:17:07.040Z,67.38
2018-03-11T00:19:34.607Z,67.41
2018-03-11T00:22:02.318Z,67.33
2018-03-11T00:24:29.883Z,68.05
2018-03-11T00:26:58.100Z,67.56
2018-03-11T00:29:26.160Z,67.40
2018-03-11T00:31:53.725Z,67.88
2018-03-11T00:34:21.281Z,67.17
2018-03-11T00:36:48.913Z,67.31
2018-03-11T00:39:16.492Z,67.06
2018-03-11T00:41:44.037Z,66.81
2018-03-11T00:44:11.891Z,66.59
2018-03-11T00:46:39.462Z,66.28
2018-03-11T00:49:07.025Z,66.16
2018-03-11T00:51:34.640Z,66.66
2018-03-11T00:54:02.208Z,66.74
2018-03-11T00:56:29.789Z,66.32
2018-03-11T00:58:57.665Z,66.32
2018-03-11T01:01:25.241Z,66.61
2018-03-11T01:03:52.871Z,66.80
2018-03-11T01:06:20.479Z,66.87
2018-03-11T01:08:48.040Z,66.62
2018-03-11T01:11:15.610Z,66.89
2018-03-11T01:13:43.312Z,67.11
2018-03-11T01:16:10.868Z,67.04
2018-03-11T01:18:38.423Z,66.67
2018-03-11T01:21:06.254Z,66.53
2018-03-11T01:23:33.801Z,67.12
2018-03-11T01:26:01.356Z,66.92
2018-03-11T01:28:29.045Z,66.78
2018-03-11T01:30:56.617Z,67.19
2018-03-11T01:33:24.187Z,67.01
2018-03-11T01:35:51.783Z,67.27
2018-03-11T01:38:19.337Z,67.16
2018-03-11T01:40:46.884Z,67.15
2018-03-11T01:43:14.501Z,67.06
2018-03-11T01:45:42.060Z,67.03
2018-03-11T01:48:09.641Z,66.67
2018-03-11T01:50:37.309Z,67.11
2018-03-11T01:53:09.872Z,66.86
2018-03-11T01:55:37.501Z,66.52
2018-03-11T01:58:05.052Z,67.08
2018-03-11T02:00:32.669Z,66.83
2018-03-11T02:03:00.593Z,66.83
2018-03-11T02:05:28.182Z,66.91
2018-03-11T02:07:55.745Z,66.12
2018-03-11T02:10:23.362Z,65.71
2018-03-11T02:12:50.930Z,65.58
2018-03-11T02:15:18.562Z,65.75
2018-03-11T02:17:46.169Z,66.28
2018-03-11T02:20:13.722Z,65.85
2018-03-11T02:22:41.314Z,66.27
2018-03-11T02:25:08.942Z,66.45
2018-03-11T02:27:36.558Z,66.39
2018-03-11T02:30:04.146Z,66.37
2018-03-11T02:32:31.757Z,66.50
2018-03-11T02:34:59.312Z,66.70
2018-03-11T02:37:26.893Z,66.52
2018-03-11T02:39:54.822Z,66.51
2018-03-11T02:42:22.410Z,66.63
2018-03-11T02:44:49.976Z,66.65
2018-03-11T02:47:17.604Z,66.68
2018-03-11T02:49:45.172Z,67.21
2018-03-11T02:52:12.732Z,67.37
2018-03-11T02:54:40.362Z,67.59
2018-03-11T02:57:08.667Z,67.44
2018-03-11T02:59:36.231Z,67.45
2018-03-11T03:02:03.974Z,67.96
2018-03-11T03:04:31.553Z,67.99
2018-03-11T03:06:59.125Z,68.03
2018-03-11T03:09:27.000Z,68.41
2018-03-11T03:11:54.630Z,68.62
2018-03-11T03:14:22.242Z,68.99
2018-03-11T03:16:49.922Z,68.89
2018-03-11T03:19:17.485Z,69.47
2018-03-11T03:21:46.026Z,69.45
2018-03-11T03:24:13.707Z,69.68
2018-03-11T03:26:41.290Z,69.62
2018-03-11T03:29:08.863Z,69.72
2018-03-11T03:31:36.480Z,69.66
2018-03-11T03:34:04.097Z,69.71
2018-03-11T03:36:31.648Z,69.75
2018-03-11T03:38:59.257Z,69.93
2018-03-11T03:41:26.812Z,69.85
2018-03-11T03:43:54.364Z,69.70
2018-03-11T03:46:22.013Z,69.48
2018-03-11T03:48:49.568Z,69.35
2018-03-11T03:51:17.154Z,69.63
2018-03-11T03:53:45.040Z,69.68
2018-03-11T03:56:12.612Z,69.67
2018-03-11T03:58:40.180Z,69.61
2018-03-11T04:01:07.800Z,69.24
2018-03-11T04:03:35.616Z,69.15
2018-03-11T04:06:03.185Z,69.17
2018-03-11T04:08:30.794Z,69.01
2018-03-11T04:10:58.363Z,68.73
2018-03-11T04:13:25.936Z,68.83
2018-03-11T04:15:53.533Z,68.36
2018-03-11T04:18:21.092Z,68.67
2018-03-11T04:20:48.686Z,68.85
2018-03-11T04:23:16.633Z,68.90
2018-03-11T04:25:44.197Z,69.23
2018-03-11T04:28:11.791Z,69.13
2018-03-11T04:30:39.416Z,69.25
2018-03-11T04:33:06.975Z,68.89
2018-03-11T04:35:34.642Z,68.87
2018-03-11T04:38:02.242Z,68.80
2018-03-11T04:40:29.788Z,69.10
2018-03-11T04:42:57.343Z,69.21
2018-03-11T04:45:24.964Z,69.22
2018-03-11T04:47:52.542Z,69.62
2018-03-11T04:50:20.168Z,69.46
2018-03-11T04:52:47.781Z,69.71
2018-03-11T04:55:15.393Z,69.99
2018-03-11T04:57:42.944Z,70.51
2018-03-11T05:00:10.594Z,70.58
2018-03-11T05:02:38.143Z,70.49
2018-03-11T05:05:05.760Z,71.04
2018-03-11T05:07:33.672Z,70.70
2018-03-11T05:10:01.238Z,70.57
2018-03-11T05:12:28.789Z,70.38
2018-03-11T05:14:56.392Z,70.21
2018-03-11T05:17:23.962Z,70.24
2018-03-11T05:19:51.527Z,69.86
2018-03-11T05:22:19.125Z,69.46
2018-03-11T05:24:46.694Z,69.31
2018-03-11T05:27:14.269Z,68.55
2018-03-11T05:29:41.891Z,65.03
2018-03-11T05:32:09.458Z,63.26
2018-03-11T05:34:37.022Z,62.48
2018-03-11T05:37:04.639Z,63.13
2018-03-11T05:39:32.270Z,63.70
2018-03-11T05:41:59.892Z,64.32
2018-03-11T05:44:27.666Z,64.47
2018-03-11T05:46:55.250Z,62.33
2018-03-11T05:49:22.820Z,56.94
2018-03-11T05:51:50.451Z,53.33
2018-03-11T05:54:18.018Z,50.41
2018-03-11T05:56:45.580Z,49.27
2018-03-11T05:59:13.217Z,48.62
2018-03-11T06:01:40.838Z,46.84
2018-03-11T06:04:08.409Z,46.70
2018-03-11T06:06:36.315Z,46.99
2018-03-11T06:09:04.042Z,47.24
2018-03-11T06:11:32.401Z,46.02
2018-03-11T06:14:00.020Z,44.57
2018-03-11T06:16:27.597Z,44.83
2018-03-11T06:18:55.820Z,45.02
2018-03-11T06:21:23.454Z,44.74
2018-03-11T06:23:51.109Z,44.66
2018-03-11T06:26:18.753Z,43.02
2018-03-11T06:28:46.369Z,43.21
2018-03-11T06:31:13.945Z,43.40
2018-03-11T06:33:41.527Z,41.55
2018-03-11T06:36:09.175Z,42.22
2018-03-11T06:38:36.837Z,42.82
2018-03-11T06:41:04.407Z,43.06
2018-03-11T06:43:32.329Z,42.34
2018-03-11T06:45:59.934Z,41.45
2018-03-11T06:48:27.506Z,39.39
2018-03-11T06:50:55.411Z,38.04
2018-03-11T06:53:23.061Z,38.20
2018-03-11T06:55:50.637Z,38.94
2018-03-11T06:58:18.265Z,39.35
2018-03-11T07:00:45.823Z,39.63
2018-03-11T07:03:13.462Z,39.08
2018-03-11T07:05:41.718Z,39.96
2018-03-11T07:08:09.445Z,40.75
2018-03-11T07:10:37.024Z,40.06
2018-03-11T07:13:04.645Z,39.72
2018-03-11T07:15:32.282Z,39.45
2018-03-11T07:17:59.864Z,39.74
2018-03-11T07:20:27.497Z,39.24
2018-03-11T07:22:55.070Z,39.22
2018-03-11T07:25:22.636Z,37.41
2018-03-11T07:27:50.294Z,36.64
2018-03-11T07:30:17.928Z,37.82
2018-03-11T07:32:45.480Z,37.84
2018-03-11T07:35:13.133Z,39.29
2018-03-11T07:37:41.340Z,38.56
2018-03-11T07:40:08.924Z,39.78
2018-03-11T07:42:36.618Z,41.32
2018-03-11T07:45:04.220Z,42.80
2018-03-11T07:47:31.792Z,41.52
2018-03-11T07:49:59.413Z,42.61
2018-03-11T07:52:26.985Z,41.61
2018-03-11T07:54:54.572Z,40.29
2018-03-11T07:57:22.198Z,41.23
2018-03-11T07:59:50.370Z,41.53
2018-03-11T08:02:17.953Z,41.01
2018-03-11T08:04:46.544Z,41.13
2018-03-11T08:07:14.138Z,40.38
2018-03-11T08:09:41.953Z,41.35
2018-03-11T08:12:09.582Z,41.51
2018-03-11T08:14:37.178Z,42.04
2018-03-11T08:17:04.764Z,42.12
2018-03-11T08:19:32.382Z,41.15
2018-03-11T08:21:59.971Z,41.66
2018-03-11T08:24:27.551Z,41.44
2018-03-11T08:26:55.187Z,41.26
2018-03-11T08:29:22.756Z,46.32
2018-03-11T08:31:50.348Z,44.56
2018-03-11T08:34:17.999Z,44.52
2018-03-11T08:36:45.580Z,44.81
2018-03-11T08:39:13.165Z,43.00
2018-03-11T08:41:40.810Z,48.34
2018-03-11T08:44:08.390Z,45.72
2018-03-11T08:46:35.985Z,44.55
2018-03-11T08:49:03.604Z,45.47
2018-03-11T08:51:31.180Z,50.42
2018-03-11T08:53:58.770Z,48.18
2018-03-11T08:56:26.397Z,49.05
2018-03-11T08:58:53.956Z,48.03
2018-03-11T09:01:21.519Z,46.31
2018-03-11T09:03:49.206Z,47.96
2018-03-11T09:06:16.784Z,48.57
2018-03-11T09:08:44.349Z,47.79
2018-03-11T09:11:12.502Z,47.25
2018-03-11T09:13:40.124Z,47.18
2018-03-11T09:16:07.740Z,47.49
2018-03-11T09:18:35.420Z,45.83
2018-03-11T09:21:02.985Z,47.40
2018-03-11T09:23:30.548Z,45.70
2018-03-11T09:25:58.162Z,46.21
2018-03-11T09:28:25.822Z,49.94
2018-03-11T09:30:53.392Z,47.33
2018-03-11T09:33:21.010Z,46.33
2018-03-11T09:35:48.590Z,45.13
2018-03-11T09:38:16.173Z,44.92
2018-03-11T09:40:43.813Z,45.77
2018-03-11T09:43:11.389Z,42.63
2018-03-11T09:45:38.962Z,45.30
2018-03-11T09:48:06.798Z,42.79
2018-03-11T09:50:34.370Z,43.85
2018-03-11T09:53:01.941Z,46.00
2018-03-11T09:55:29.561Z,48.76
2018-03-11T09:57:57.136Z,45.66
2018-03-11T10:00:25.571Z,43.55
2018-03-11T10:02:53.201Z,46.09
2018-03-11T10:05:20.772Z,45.20
2018-03-11T10:07:48.403Z,43.12
2018-03-11T10:10:16.022Z,44.13
2018-03-11T10:12:44.076Z,45.37
2018-03-11T10:15:11.706Z,43.60
2018-03-11T10:17:39.335Z,43.56
2018-03-11T10:20:06.949Z,43.15
2018-03-11T10:22:34.517Z,43.34
2018-03-11T10:25:02.415Z,41.80
2018-03-11T10:27:30.004Z,42.96
2018-03-11T10:29:57.582Z,41.71
2018-03-11T10:32:25.203Z,40.01
2018-03-11T10:34:52.851Z,42.26
2018-03-11T10:37:21.058Z,40.64
2018-03-11T10:39:48.786Z,41.15
2018-03-11T10:42:16.340Z,40.68
2018-03-11T10:44:43.979Z,40.25
2018-03-11T10:47:11.652Z,40.50
2018-03-11T10:49:39.210Z,38.97
2018-03-11T10:52:06.775Z,39.87
2018-03-11T10:54:34.458Z,37.65
2018-03-11T10:57:02.049Z,39.30
2018-03-11T10:59:29.606Z,40.67
2018-03-11T11:02:16.781Z,37.79
2018-03-11T11:04:49.864Z,37.00
2018-03-11T11:07:17.725Z,34.21
2018-03-11T11:09:45.289Z,37.87
2018-03-11T11:12:12.837Z,34.70
2018-03-11T11:14:40.540Z,36.54
2018-03-11T11:17:08.102Z,37.98
2018-03-11T11:19:35.655Z,39.48
2018-03-11T11:22:03.317Z,38.82
2018-03-11T11:24:30.875Z,36.69
2018-03-11T11:26:59.382Z,37.92
2018-03-11T11:29:26.998Z,38.13
2018-03-11T11:31:54.618Z,37.97
2018-03-11T11:34:22.188Z,38.01
2018-03-11T11:36:49.813Z,36.70
2018-03-11T11:39:17.372Z,35.79
2018-03-11T11:41:44.920Z,34.65
2018-03-11T11:44:12.534Z,36.26
2018-03-11T11:46:40.122Z,34.65
2018-03-11T11:49:07.707Z,34.33
2018-03-11T11:51:35.419Z,32.58
2018-03-11T11:54:02.970Z,33.33
2018-03-11T11:56:30.544Z,30.42
2018-03-11T11:58:58.245Z,30.78
2018-03-11T12:01:26.418Z,30.80
2018-03-11T12:03:53.972Z,28.80
2018-03-11T12:06:21.595Z,29.19
2018-03-11T12:08:49.166Z,29.41
2018-03-11T12:11:16.742Z,26.96
2018-03-11T12:13:44.356Z,26.39
2018-03-11T12:16:12.881Z,25.55
2018-03-11T12:18:40.442Z,24.40
2018-03-11T12:21:08.334Z,23.30
2018-03-11T12:23:35.888Z,23.23
2018-03-11T12:26:03.482Z,24.14
2018-03-11T12:28:31.145Z,25.90
2018-03-11T12:30:58.706Z,24.85
2018-03-11T12:33:26.327Z,25.46
2018-03-11T12:35:53.960Z,26.33
2018-03-11T12:38:21.604Z,25.99
2018-03-11T12:40:49.173Z,25.37
2018-03-11T12:43:16.805Z,27.13
2018-03-11T12:45:44.437Z,28.33
2018-03-11T12:48:11.988Z,29.09
2018-03-11T12:50:39.826Z,29.03
2018-03-11T12:53:07.405Z,29.59
2018-03-11T12:55:34.968Z,30.42
2018-03-11T12:58:03.424Z,30.29
2018-03-11T13:00:30.986Z,31.23
2018-03-11T13:02:58.563Z,30.95
2018-03-11T13:05:26.175Z,31.95
2018-03-11T13:07:53.733Z,32.88
2018-03-11T13:10:21.296Z,30.60
2018-03-11T13:12:48.906Z,30.41
2018-03-11T13:15:16.480Z,29.21
2018-03-11T13:17:44.494Z,31.34
2018-03-11T13:20:24.085Z,30.89
2018-03-11T13:22:51.657Z,31.72
2018-03-11T13:25:19.293Z,33.09
2018-03-11T13:27:59.096Z,33.03
2018-03-11T13:30:26.662Z,33.51
2018-03-11T13:33:06.051Z,34.73
2018-03-11T13:35:33.689Z,35.26
2018-03-11T13:38:12.922Z,35.48
2018-03-11T13:40:41.512Z,35.82
2018-03-11T13:43:09.213Z,35.06
2018-03-11T13:45:48.417Z,36.80
2018-03-11T13:48:16.070Z,38.54
2018-03-11T13:50:43.637Z,36.05
2018-03-11T13:53:23.121Z,36.53
2018-03-11T13:55:50.796Z,36.26
2018-03-11T13:58:24.402Z,35.11
2018-03-11T14:00:52.031Z,35.44
2018-03-11T14:03:19.584Z,35.25
2018-03-11T14:05:47.229Z,34.44
2018-03-11T14:08:14.798Z,33.61
2018-03-11T14:10:42.364Z,35.81
2018-03-11T14:13:10.003Z,34.50
2018-03-11T14:15:37.582Z,34.98
2018-03-11T14:18:05.438Z,34.09
2018-03-11T14:20:33.052Z,33.82
2018-03-11T14:23:00.706Z,34.89
2018-03-11T14:25:28.277Z,35.75
2018-03-11T14:27:55.970Z,34.61
2018-03-11T14:30:23.534Z,36.56
2018-03-11T14:32:51.125Z,36.81
2018-03-11T14:35:18.749Z,35.44
2018-03-11T14:37:46.327Z,36.01
2018-03-11T14:40:13.937Z,36.29
2018-03-11T14:42:41.849Z,37.56
2018-03-11T14:45:09.447Z,36.99
2018-03-11T14:47:37.030Z,38.02
2018-03-11T14:50:04.685Z,37.19
2018-03-11T14:52:32.326Z,36.63
2018-03-11T14:54:59.946Z,37.38
2018-03-11T14:57:27.554Z,37.10
2018-03-11T14:59:55.137Z,36.39
2018-03-11T15:02:22.699Z,36.92
2018-03-11T15:04:50.313Z,37.27
2018-03-11T15:07:17.888Z,37.09
2018-03-11T15:09:45.455Z,38.73
2018-03-11T15:12:13.132Z,37.97
2018-03-11T15:14:40.706Z,38.59
2018-03-11T15:17:08.310Z,38.13
2018-03-11T15:19:36.305Z,38.92
2018-03-11T15:22:03.924Z,38.46
2018-03-11T15:24:31.498Z,38.71
2018-03-11T15:26:59.134Z,39.40
2018-03-11T15:29:26.702Z,39.77
2018-03-11T15:31:54.314Z,39.58
2018-03-11T15:34:21.937Z,39.20
2018-03-11T15:36:49.493Z,39.36
2018-03-11T15:39:17.126Z,40.09
2018-03-11T15:41:44.750Z,39.44
2018-03-11T15:44:12.312Z,39.11
2018-03-11T15:46:39.882Z,38.39
2018-03-11T15:49:07.607Z,38.46
2018-03-11T15:51:35.214Z,38.68
2018-03-11T15:54:02.787Z,38.47
2018-03-11T15:56:30.703Z,41.65
2018-03-11T15:58:58.299Z,42.77
2018-03-11T16:01:25.861Z,43.30
2018-03-11T16:03:53.486Z,43.79
2018-03-11T16:06:21.053Z,43.96
2018-03-11T16:08:48.618Z,43.75
2018-03-11T16:11:16.237Z,43.54
2018-03-11T16:13:44.685Z,43.62
2018-03-11T16:16:12.256Z,44.31
2018-03-11T16:18:39.860Z,43.89
2018-03-11T16:21:07.453Z,44.12
2018-03-11T16:23:35.013Z,44.38
2018-03-11T16:26:02.695Z,44.82
2018-03-11T16:28:30.295Z,45.82
2018-03-11T16:30:57.982Z,46.37
2018-03-11T16:33:25.805Z,46.40
2018-03-11T16:35:53.475Z,46.55
2018-03-11T16:38:21.049Z,46.82
2018-03-11T16:40:48.686Z,47.19
2018-03-11T16:43:16.267Z,47.65
2018-03-11T16:45:43.874Z,48.13
2018-03-11T16:48:11.517Z,47.99
2018-03-11T16:50:39.158Z,48.60
2018-03-11T16:53:06.773Z,48.94
2018-03-11T16:55:34.395Z,49.20
2018-03-11T16:58:02.071Z,49.63
2018-03-11T17:00:29.632Z,50.45
2018-03-11T17:02:57.268Z,50.26
2018-03-11T17:05:24.832Z,50.50
2018-03-11T17:07:52.424Z,50.45
2018-03-11T17:10:20.118Z,51.48
2018-03-11T17:12:47.696Z,51.47
2018-03-11T17:15:15.340Z,52.00
2018-03-11T17:17:43.119Z,52.31
2018-03-11T17:20:10.705Z,52.78
2018-03-11T17:22:38.469Z,53.37
2018-03-11T17:25:06.109Z,54.24
2018-03-11T17:27:33.707Z,54.69
2018-03-11T17:30:01.379Z,55.42
2018-03-11T17:32:28.981Z,55.02
2018-03-11T17:34:56.560Z,55.60
2018-03-11T17:37:24.228Z,56.02
2018-03-11T17:39:51.991Z,56.19
2018-03-11T17:42:20.367Z,56.69
2018-03-11T17:44:48.042Z,56.76
2018-03-11T17:47:16.265Z,57.50
2018-03-11T17:49:43.903Z,57.96
2018-03-11T17:52:11.594Z,58.24
2018-03-11T17:54:39.293Z,58.35
2018-03-11T17:57:06.939Z,58.55
2018-03-11T17:59:34.795Z,58.68
2018-03-11T18:02:02.644Z,58.66
2018-03-11T18:04:30.530Z,58.57
2018-03-11T18:06:58.280Z,58.73
2018-03-11T18:09:26.203Z,58.96
2018-03-11T18:11:53.921Z,59.39
2018-03-11T18:14:21.802Z,59.55
2018-03-11T18:16:49.994Z,59.55
2018-03-11T18:19:18.475Z,59.65
2018-03-11T18:21:46.340Z,59.85
2018-03-11T18:24:14.446Z,59.49
2018-03-11T18:26:42.351Z,60.05
2018-03-11T18:29:10.242Z,59.78
2018-03-11T18:31:38.148Z,60.64
2018-03-11T18:34:06.030Z,60.77
2018-03-11T18:36:33.870Z,61.02
2018-03-11T18:39:01.777Z,61.32
2018-03-11T18:41:29.686Z,61.78
2018-03-11T18:43:57.464Z,62.02
2018-03-11T18:46:25.291Z,62.49
2018-03-11T18:48:53.139Z,62.70
2018-03-11T18:51:20.935Z,63.49
2018-03-11T18:53:48.860Z,63.73
2018-03-11T18:56:16.695Z,63.43
2018-03-11T18:58:44.485Z,63.66
2018-03-11T19:01:12.607Z,64.09
2018-03-11T19:03:40.518Z,64.20
2018-03-11T19:06:08.363Z,64.05
2018-03-11T19:08:36.298Z,64.12
2018-03-11T19:11:04.150Z,64.19
2018-03-11T19:13:32.044Z,64.61
2018-03-11T19:16:00.029Z,65.01
2018-03-11T19:18:27.952Z,65.05
2018-03-11T19:20:55.768Z,65.48
2018-03-11T19:23:23.672Z,65.65
2018-03-11T19:25:51.608Z,66.04
2018-03-11T19:28:19.500Z,65.65
2018-03-11T19:30:47.358Z,66.04
2018-03-11T19:33:15.230Z,66.16
2018-03-11T19:35:44.927Z,66.59
2018-03-11T19:38:13.089Z,66.75
2018-03-11T19:40:40.958Z,67.20
2018-03-11T19:43:08.890Z,67.24
2018-03-11T19:45:36.882Z,67.59
2018-03-11T19:48:04.832Z,67.51
2018-03-11T19:50:32.693Z,67.50
2018-03-11T19:53:00.678Z,67.71
2018-03-11T19:55:28.550Z,67.84
2018-03-11T19:57:56.398Z,67.73
2018-03-11T20:00:24.323Z,68.12
2018-03-11T20:02:52.244Z,68.21
2018-03-11T20:05:20.100Z,68.29
2018-03-11T20:07:48.612Z,68.78
2018-03-11T20:10:16.466Z,69.47
2018-03-11T20:12:44.307Z,69.65
2018-03-11T20:15:12.182Z,69.48
2018-03-11T20:17:40.072Z,69.45
2018-03-11T20:20:07.942Z,69.92
2018-03-11T20:22:36.092Z,69.99
2018-03-11T20:25:03.906Z,69.58
2018-03-11T20:27:31.725Z,69.61
2018-03-11T20:29:59.547Z,69.74
2018-03-11T20:32:27.215Z,69.63
2018-03-11T20:34:54.830Z,69.56
2018-03-11T20:37:22.484Z,69.29
2018-03-11T20:39:50.057Z,69.77
2018-03-11T20:42:17.732Z,69.67
2018-03-11T20:44:45.436Z,69.70
2018-03-11T20:47:13.008Z,69.44
2018-03-11T20:49:40.656Z,69.58
2018-03-11T20:52:08.526Z,69.71
2018-03-11T20:54:36.096Z,69.58
2018-03-11T20:57:03.667Z,69.87
2018-03-11T20:59:31.362Z,70.53
2018-03-11T21:01:58.949Z,70.94
2018-03-11T21:04:26.541Z,71.04
2018-03-11T21:06:54.163Z,71.33
2018-03-11T21:09:21.745Z,71.32
2018-03-11T21:11:49.303Z,71.57
2018-03-11T21:14:16.920Z,71.62
2018-03-11T21:16:44.485Z,72.16
2018-03-11T21:19:12.141Z,72.30
2018-03-11T21:21:39.766Z,72.33
2018-03-11T21:24:07.350Z,72.27
2018-03-11T21:26:34.925Z,71.87
2018-03-11T21:29:02.985Z,72.43
2018-03-11T21:31:30.545Z,72.49
2018-03-11T21:33:58.144Z,72.74
2018-03-11T21:36:25.793Z,72.80
2018-03-11T21:38:53.373Z,72.25
2018-03-11T21:41:20.935Z,72.01
2018-03-11T21:43:48.543Z,72.08
2018-03-11T21:46:16.120Z,72.10
2018-03-11T21:48:43.696Z,72.36
2018-03-11T21:51:11.322Z,72.51
2018-03-11T21:53:38.916Z,72.41
2018-03-11T21:56:06.508Z,71.82
2018-03-11T21:58:34.143Z,72.35
2018-03-11T22:01:01.783Z,71.77
2018-03-11T22:03:30.177Z,71.69
2018-03-11T22:05:58.059Z,71.06
2018-03-11T22:08:25.720Z,71.11
2018-03-11T22:10:53.289Z,71.53
2018-03-11T22:13:20.920Z,71.50
2018-03-11T22:15:50.338Z,71.63
2018-03-11T22:18:17.924Z,72.01
2018-03-11T22:20:45.549Z,72.15
2018-03-11T22:23:13.100Z,71.98
2018-03-11T22:25:40.665Z,72.26
2018-03-11T22:28:08.400Z,73.02
2018-03-11T22:30:36.209Z,73.39
2018-03-11T22:33:03.850Z,73.53
2018-03-11T22:35:31.534Z,73.46
2018-03-11T22:37:59.937Z,73.72
2018-03-11T22:40:27.507Z,74.14
2018-03-11T22:42:55.465Z,74.10
2018-03-11T22:45:23.133Z,74.16
2018-03-11T22:47:50.711Z,73.80
2018-03-11T22:50:18.640Z,73.50
2018-03-11T22:52:46.254Z,73.36
2018-03-11T22:55:13.924Z,73.15
2018-03-11T22:57:41.560Z,72.93
2018-03-11T23:00:09.186Z,72.52
2018-03-11T23:02:36.757Z,72.19
2018-03-11T23:05:04.480Z,72.34
2018-03-11T23:07:32.045Z,72.43
2018-03-11T23:09:59.637Z,72.55
2018-03-11T23:12:27.327Z,72.60
2018-03-11T23:14:54.912Z,72.49
2018-03-11T23:17:22.476Z,72.61
2018-03-11T23:19:50.072Z,72.54
2018-03-11T23:22:17.656Z,72.78
2018-03-11T23:24:45.234Z,73.06
2018-03-11T23:27:13.087Z,73.49
2018-03-11T23:29:40.684Z,74.13
2018-03-11T23:32:08.374Z,74.10
2018-03-11T23:34:35.987Z,74.63
2018-03-11T23:37:03.556Z,74.98
2018-03-11T23:39:31.116Z,75.28
2018-03-11T23:41:58.728Z,74.98
2018-03-11T23:44:26.284Z,75.03
2018-03-11T23:46:53.845Z,75.22
2018-03-11T23:49:21.494Z,75.24
2018-03-11T23:51:49.048Z,75.17
2018-03-11T23:54:16.630Z,75.47
2018-03-11T23:56:44.231Z,75.75
2018-03-11T23:59:11.798Z,75.68
